createdAt,value
2022-08-12T00:00:36.870Z,101838.03
2022-08-12T00:03:23.025Z,101835.28
2022-08-12T00:06:09.952Z,101839.34
2022-08-12T00:08:57.635Z,101840.03
2022-08-12T00:11:45.327Z,101837.63
2022-08-12T00:14:31.926Z,101841.88
2022-08-12T00:17:18.230Z,101838.63
2022-08-12T00:20:04.596Z,101839.66
2022-08-12T00:22:58.805Z,101838.31
2022-08-12T00:26:21.798Z,101849.59
2022-08-12T00:28:59.635Z,101845.22
2022-08-12T00:31:45.830Z,101846.44
2022-08-12T00:34:35.894Z,101847.63
2022-08-12T00:37:23.729Z,101853.06
2022-08-12T00:40:10.913Z,101849.34
2022-08-12T00:42:42.009Z,101849.50
2022-08-12T00:45:10.593Z,101855.47
2022-08-12T00:47:39.561Z,101855.78
2022-08-12T00:50:08.277Z,101856.84
2022-08-12T00:52:36.162Z,101844.63
2022-08-12T00:55:05.819Z,101850.25
2022-08-12T00:57:36.937Z,101856.78
2022-08-12T01:00:15.915Z,101850.53
2022-08-12T01:02:53.680Z,101857.56
2022-08-12T01:05:43.201Z,101858.59
2022-08-12T01:08:29.718Z,101853.47
2022-08-12T01:11:16.585Z,101849.41
2022-08-12T01:13:49.426Z,101855.34
2022-08-12T01:16:25.296Z,101855.34
2022-08-12T01:18:56.646Z,101853.66
2022-08-12T01:22:00.848Z,101853.78
2022-08-12T01:24:58.534Z,101842.50
2022-08-12T01:27:28.800Z,101859.50
2022-08-12T01:29:58.269Z,101855.53
2022-08-12T01:32:29.224Z,101857.69
2022-08-12T01:35:04.508Z,101855.91
2022-08-12T01:37:42.486Z,101856.78
2022-08-12T01:40:35.378Z,101856.94
2022-08-12T01:43:10.126Z,101851.88
2022-08-12T01:46:01.887Z,101854.69
2022-08-12T01:48:29.984Z,101847.81
2022-08-12T01:52:21.473Z,101846.19
2022-08-12T01:54:45.124Z,101846.59
2022-08-12T01:57:57.852Z,101846.84
2022-08-12T02:00:54.913Z,101843.06
2022-08-12T02:04:27.132Z,101853.44
2022-08-12T02:07:38.885Z,101846.59
2022-08-12T02:10:50.948Z,101852.47
2022-08-12T02:13:50.169Z,101857.13
2022-08-12T02:16:32.001Z,101856.75
2022-08-12T02:19:26.203Z,101856.59
2022-08-12T02:22:28.341Z,101849.97
2022-08-12T02:25:43.869Z,101848.00
2022-08-12T02:28:11.788Z,101856.88
2022-08-12T02:30:42.364Z,101852.78
2022-08-12T02:33:11.038Z,101862.22
2022-08-12T02:35:39.795Z,101854.59
2022-08-12T02:38:11.224Z,101851.28
2022-08-12T02:40:42.927Z,101856.25
2022-08-12T02:43:30.296Z,101858.81
2022-08-12T02:46:13.436Z,101860.41
2022-08-12T02:48:59.119Z,101858.56
2022-08-12T02:51:41.842Z,101854.31
2022-08-12T02:54:09.269Z,101859.38
2022-08-12T02:56:50.245Z,101856.34
2022-08-12T02:59:23.728Z,101864.69
2022-08-12T03:02:03.410Z,101858.47
2022-08-12T03:04:53.898Z,101846.16
2022-08-12T03:07:28.845Z,101849.84
2022-08-12T03:10:17.747Z,101852.41
2022-08-12T03:12:49.890Z,101855.72
2022-08-12T03:15:22.900Z,101849.72
2022-08-12T03:18:26.298Z,101858.81
2022-08-12T03:20:58.717Z,101842.38
2022-08-12T03:23:29.581Z,101840.13
2022-08-12T03:26:01.979Z,101837.63
2022-08-12T03:28:51.819Z,101837.22
2022-08-12T03:31:22.093Z,101834.31
2022-08-12T03:34:01.881Z,101831.44
2022-08-12T03:36:36.068Z,101836.78
2022-08-12T03:39:18.546Z,101835.06
2022-08-12T03:42:19.630Z,101836.97
2022-08-12T03:45:51.924Z,101838.06
2022-08-12T03:48:39.318Z,101838.69
2022-08-12T03:51:25.226Z,101840.88
2022-08-12T03:54:11.830Z,101839.31
2022-08-12T03:56:58.257Z,101855.59
2022-08-12T03:59:44.162Z,101850.38
2022-08-12T04:02:16.093Z,101850.75
2022-08-12T04:04:53.353Z,101846.28
2022-08-12T04:07:21.237Z,101836.13
2022-08-12T04:09:48.264Z,101847.75
2022-08-12T04:12:34.320Z,101852.19
2022-08-12T04:15:03.650Z,101854.56
2022-08-12T04:17:32.022Z,101849.59
2022-08-12T04:19:59.972Z,101847.78
2022-08-12T04:22:37.950Z,101855.09
2022-08-12T04:25:08.944Z,101855.53
2022-08-12T04:27:37.584Z,101851.84
2022-08-12T04:30:21.053Z,101870.19
2022-08-12T04:32:54.668Z,101880.47
2022-08-12T04:35:21.610Z,101872.53
2022-08-12T04:37:59.780Z,101872.84
2022-08-12T04:40:30.968Z,101868.00
2022-08-12T04:43:01.256Z,101863.56
2022-08-12T04:45:29.147Z,101864.63
2022-08-12T04:47:56.696Z,101864.78
2022-08-12T04:50:34.159Z,101858.16
2022-08-12T04:53:07.965Z,101862.78
2022-08-12T04:55:37.434Z,101861.38
2022-08-12T04:58:04.759Z,101858.47
2022-08-12T05:00:31.954Z,101863.22
2022-08-12T05:02:59.154Z,101862.84
2022-08-12T05:05:30.395Z,101872.84
2022-08-12T05:08:00.883Z,101871.63
2022-08-12T05:10:33.916Z,101875.19
2022-08-12T05:13:12.319Z,101871.41
2022-08-12T05:16:02.353Z,101867.97
2022-08-12T05:18:29.061Z,101869.50
2022-08-12T05:20:59.088Z,101872.34
2022-08-12T05:23:27.227Z,101871.09
2022-08-12T05:25:57.081Z,101860.88
2022-08-12T05:28:27.183Z,101863.25
2022-08-12T05:30:56.113Z,101878.63
2022-08-12T05:33:31.574Z,101877.69
2022-08-12T05:35:58.969Z,101874.50
2022-08-12T05:38:44.802Z,101869.84
2022-08-12T05:41:20.280Z,101858.81
2022-08-12T05:43:48.908Z,101866.41
2022-08-12T05:46:19.801Z,101863.09
2022-08-12T05:48:49.466Z,101858.75
2022-08-12T05:51:17.490Z,101861.44
2022-08-12T05:53:45.111Z,101866.50
2022-08-12T05:56:31.393Z,101865.63
2022-08-12T05:59:01.569Z,101859.66
2022-08-12T06:02:09.720Z,101850.78
2022-08-12T06:04:17.051Z,101840.97
2022-08-12T06:06:45.046Z,101842.72
2022-08-12T06:09:12.232Z,101836.94
2022-08-12T06:12:04.723Z,101828.84
2022-08-12T06:14:30.085Z,101836.16
2022-08-12T06:16:57.707Z,101841.28
2022-08-12T06:20:28.199Z,101844.47
2022-08-12T06:22:15.509Z,101844.16
2022-08-12T06:24:42.526Z,101843.19
2022-08-12T06:27:09.738Z,101844.13
2022-08-12T06:30:09.071Z,101840.78
2022-08-12T06:32:30.129Z,101826.47
2022-08-12T06:35:25.111Z,101829.69
2022-08-12T06:37:56.777Z,101831.00
2022-08-12T06:40:44.498Z,101836.69
2022-08-12T06:43:13.169Z,101825.53
2022-08-12T06:45:49.539Z,101827.72
2022-08-12T06:48:17.382Z,101834.16
2022-08-12T06:50:46.112Z,101827.03
2022-08-12T06:53:13.233Z,101827.94
2022-08-12T06:55:58.035Z,101832.31
2022-08-12T06:58:28.702Z,101824.59
2022-08-12T07:00:58.024Z,101831.22
2022-08-12T07:03:30.221Z,101831.22
2022-08-12T07:06:04.075Z,101827.94
2022-08-12T07:08:34.296Z,101828.44
2022-08-12T07:11:04.967Z,101827.28
2022-08-12T07:14:02.302Z,101832.63
2022-08-12T07:16:49.953Z,101831.56
2022-08-12T07:19:17.296Z,101839.63
2022-08-12T07:22:00.177Z,101838.91
2022-08-12T07:24:29.922Z,101838.78
2022-08-12T07:26:57.055Z,101831.22
2022-08-12T07:29:26.089Z,101841.34
2022-08-12T07:32:13.071Z,101835.34
2022-08-12T07:34:43.403Z,101826.19
2022-08-12T07:37:10.543Z,101822.88
2022-08-12T07:39:37.592Z,101834.91
2022-08-12T07:42:18.554Z,101819.28
2022-08-12T07:44:51.709Z,101823.78
2022-08-12T07:47:18.893Z,101826.00
2022-08-12T07:50:05.043Z,101820.25
2022-08-12T07:52:42.557Z,101832.00
2022-08-12T07:55:12.025Z,101825.59
2022-08-12T07:57:58.740Z,101822.66
2022-08-12T08:00:28.091Z,101823.44
2022-08-12T08:02:55.497Z,101829.03
2022-08-12T08:05:26.320Z,101827.47
2022-08-12T08:07:56.018Z,101828.28
2022-08-12T08:10:23.062Z,101813.63
2022-08-12T08:12:58.146Z,101823.25
2022-08-12T08:16:00.729Z,101821.38
2022-08-12T08:18:26.631Z,101829.69
2022-08-12T08:20:56.738Z,101822.56
2022-08-12T08:23:56.062Z,101823.44
2022-08-12T08:26:25.857Z,101826.19
2022-08-12T08:28:55.678Z,101821.63
2022-08-12T08:31:22.819Z,101818.03
2022-08-12T08:34:04.907Z,101824.13
2022-08-12T08:36:39.439Z,101819.03
2022-08-12T08:39:20.859Z,101816.50
2022-08-12T08:42:13.803Z,101823.72
2022-08-12T08:44:46.710Z,101820.56
2022-08-12T08:47:16.706Z,101818.25
2022-08-12T08:49:43.897Z,101829.16
2022-08-12T08:52:11.844Z,101818.19
2022-08-12T08:54:39.735Z,101816.59
2022-08-12T08:57:08.085Z,101831.06
2022-08-12T08:59:35.333Z,101810.53
2022-08-12T09:02:02.696Z,101815.88
2022-08-12T09:05:12.323Z,101813.44
2022-08-12T09:07:43.981Z,101813.03
2022-08-12T09:10:09.344Z,101805.03
2022-08-12T09:16:02.530Z,101823.22
2022-08-12T09:18:34.998Z,101801.59
2022-08-12T09:21:06.481Z,101802.31
2022-08-12T09:24:00.173Z,101800.00
2022-08-12T09:26:28.129Z,101786.16
2022-08-12T09:28:57.269Z,101802.50
2022-08-12T09:32:07.182Z,101799.34
2022-08-12T09:34:25.291Z,101793.69
2022-08-12T09:37:01.528Z,101784.06
2022-08-12T09:40:04.395Z,101788.03
2022-08-12T09:42:54.270Z,101776.81
2022-08-12T09:46:06.942Z,101780.00
2022-08-12T09:48:19.922Z,101783.44
2022-08-12T09:50:51.893Z,101782.84
2022-08-12T09:53:36.556Z,101776.50
2022-08-12T09:56:58.550Z,101780.03
2022-08-12T09:59:01.763Z,101779.81
2022-08-12T10:01:35.227Z,101767.66
2022-08-12T10:04:19.595Z,101772.94
2022-08-12T10:06:53.989Z,101780.66
2022-08-12T10:09:56.954Z,101766.59
2022-08-12T10:12:31.421Z,101766.81
2022-08-12T10:15:01.895Z,101763.91
2022-08-12T10:17:29.280Z,101753.63
2022-08-12T10:19:59.725Z,101763.41
2022-08-12T10:22:39.044Z,101767.72
2022-08-12T10:26:33.943Z,101768.38
2022-08-12T10:28:39.037Z,101757.78
2022-08-12T10:31:06.702Z,101766.91
2022-08-12T10:34:06.168Z,101751.41
2022-08-12T10:36:36.227Z,101755.25
2022-08-12T10:40:01.057Z,101748.94
2022-08-12T10:42:29.304Z,101738.66
2022-08-12T10:45:04.494Z,101740.72
2022-08-12T10:48:19.108Z,101723.88
2022-08-12T10:50:35.786Z,101727.69
2022-08-12T10:53:11.567Z,101721.44
2022-08-12T10:55:48.949Z,101733.22
2022-08-12T10:58:28.069Z,101731.47
2022-08-12T11:01:50.086Z,101721.06
2022-08-12T11:04:25.547Z,101718.97
2022-08-12T11:07:09.093Z,101721.16
2022-08-12T11:09:54.378Z,101712.47
2022-08-12T11:12:57.008Z,101700.81
2022-08-12T11:15:19.257Z,101711.47
2022-08-12T11:17:53.623Z,101720.22
2022-08-12T11:20:30.615Z,101708.13
2022-08-12T11:23:03.635Z,101708.22
2022-08-12T11:25:42.411Z,101699.78
2022-08-12T11:28:20.581Z,101708.03
2022-08-12T11:31:02.514Z,101700.66
2022-08-12T11:34:06.568Z,101691.94
2022-08-12T11:36:17.410Z,101694.81
2022-08-12T11:38:50.539Z,101688.56
2022-08-12T11:41:31.363Z,101692.66
2022-08-12T11:44:35.117Z,101693.78
2022-08-12T11:46:54.079Z,101686.25
2022-08-12T11:49:31.364Z,101690.97
2022-08-12T11:52:02.192Z,101691.78
2022-08-12T11:54:30.428Z,101684.00
2022-08-12T11:57:02.326Z,101683.72
2022-08-12T12:02:21.318Z,101667.28
2022-08-12T12:04:52.552Z,101672.69
2022-08-12T12:07:33.750Z,101659.78
2022-08-12T12:10:15.575Z,101667.31
2022-08-12T12:12:49.762Z,101659.97
2022-08-12T12:15:25.114Z,101652.50
2022-08-12T12:17:54.986Z,101657.69
2022-08-12T12:20:26.059Z,101656.69
2022-08-12T12:22:57.632Z,101656.41
2022-08-12T12:26:07.139Z,101653.19
2022-08-12T12:28:37.173Z,101652.34
2022-08-12T12:31:04.219Z,101660.97
2022-08-12T12:33:56.763Z,101664.09
2022-08-12T12:36:24.149Z,101651.25
2022-08-12T12:38:57.052Z,101661.03
2022-08-12T12:42:54.366Z,101654.88
2022-08-12T12:44:25.796Z,101645.34
2022-08-12T12:46:57.585Z,101639.00
2022-08-12T12:49:27.976Z,101634.72
2022-08-12T12:52:18.572Z,101630.44
2022-08-12T12:54:52.702Z,101632.78
2022-08-12T12:57:21.541Z,101628.91
2022-08-12T13:00:17.954Z,101635.75
2022-08-12T13:02:55.479Z,101627.53
2022-08-12T13:05:27.836Z,101634.13
2022-08-12T13:08:00.955Z,101626.47
2022-08-12T13:10:36.636Z,101629.66
2022-08-12T13:14:08.192Z,101615.47
2022-08-12T13:15:53.897Z,101620.88
2022-08-12T13:18:28.891Z,101619.75
2022-08-12T13:20:59.660Z,101611.53
2022-08-12T13:23:36.922Z,101622.38
2022-08-12T13:26:05.161Z,101614.78
2022-08-12T13:28:32.800Z,101605.06
2022-08-12T13:31:00.538Z,101615.09
2022-08-12T13:33:29.448Z,101610.22
2022-08-12T13:36:18.037Z,101606.59
2022-08-12T13:38:54.290Z,101596.13
2022-08-12T13:41:34.101Z,101608.91
2022-08-12T13:44:04.665Z,101610.59
2022-08-12T13:46:32.166Z,101601.63
2022-08-12T13:48:59.355Z,101605.41
2022-08-12T13:51:27.018Z,101596.53
2022-08-12T13:54:11.559Z,101598.13
2022-08-12T13:56:39.051Z,101595.69
2022-08-12T13:59:09.719Z,101599.41
2022-08-12T14:01:40.396Z,101590.97
2022-08-12T14:04:11.962Z,101588.03
2022-08-12T14:06:40.638Z,101593.06
2022-08-12T14:09:17.799Z,101593.94
2022-08-12T14:11:59.076Z,101590.34
2022-08-12T14:14:31.441Z,101583.09
2022-08-12T14:17:09.809Z,101587.31
2022-08-12T14:19:48.603Z,101588.16
2022-08-12T14:22:20.772Z,101581.34
2022-08-12T14:24:53.263Z,101580.56
2022-08-12T14:28:02.792Z,101590.25
2022-08-12T14:30:17.253Z,101582.66
2022-08-12T14:32:55.024Z,101581.66
2022-08-12T14:35:22.104Z,101571.47
2022-08-12T14:37:57.695Z,101564.13
2022-08-12T14:40:30.078Z,101573.22
2022-08-12T14:42:58.885Z,101571.81
2022-08-12T14:45:37.253Z,101579.97
2022-08-12T14:48:18.594Z,101570.63
2022-08-12T14:52:10.624Z,101576.22
2022-08-12T14:59:55.737Z,101562.13
2022-08-12T15:02:21.875Z,101558.28
2022-08-12T15:05:00.810Z,101570.00
2022-08-12T15:07:33.867Z,101560.59
2022-08-12T15:10:25.381Z,101556.91
2022-08-12T15:12:59.197Z,101552.81
2022-08-12T15:15:26.193Z,101565.91
2022-08-12T15:18:02.028Z,101554.81
2022-08-12T15:20:37.285Z,101560.28
2022-08-12T15:23:18.173Z,101559.84
2022-08-12T15:26:02.720Z,101555.00
2022-08-12T15:28:34.784Z,101555.88
2022-08-12T15:31:09.650Z,101560.41
2022-08-12T15:33:51.240Z,101555.22
2022-08-12T15:36:54.377Z,101547.84
2022-08-12T15:39:16.933Z,101541.75
2022-08-12T15:41:50.398Z,101550.59
2022-08-12T15:44:38.191Z,101554.03
2022-08-12T15:47:07.215Z,101548.13
2022-08-12T15:49:43.086Z,101555.25
2022-08-12T15:52:28.110Z,101550.19
2022-08-12T15:54:58.337Z,101549.72
2022-08-12T15:57:27.615Z,101543.97
2022-08-12T16:00:04.528Z,101540.31
2022-08-12T16:02:50.403Z,101534.00
2022-08-12T16:06:11.254Z,101545.09
2022-08-12T16:08:17.102Z,101544.09
2022-08-12T16:10:45.859Z,101538.66
2022-08-12T16:13:32.566Z,101532.34
2022-08-12T16:16:22.790Z,101525.59
2022-08-12T16:18:56.386Z,101533.72
2022-08-12T16:21:50.452Z,101528.91
2022-08-12T16:24:12.023Z,101528.78
2022-08-12T16:26:41.592Z,101535.44
2022-08-12T16:29:15.344Z,101539.25
2022-08-12T16:31:44.643Z,101542.00
2022-08-12T16:34:41.945Z,101531.91
2022-08-12T16:37:07.896Z,101523.97
2022-08-12T16:39:59.501Z,101529.97
2022-08-12T16:42:28.210Z,101526.47
2022-08-12T16:45:20.510Z,101524.13
2022-08-12T16:47:58.943Z,101522.41
2022-08-12T16:50:30.879Z,101516.41
2022-08-12T16:52:59.907Z,101516.69
2022-08-12T16:55:41.952Z,101523.69
2022-08-12T16:58:27.987Z,101510.69
2022-08-12T17:01:01.719Z,101515.91
2022-08-12T17:03:32.468Z,101512.13
2022-08-12T17:06:06.576Z,101506.81
2022-08-12T17:08:34.531Z,101500.34
2022-08-12T17:11:01.563Z,101490.88
2022-08-12T17:13:29.262Z,101493.34
2022-08-12T17:16:06.162Z,101492.66
2022-08-12T17:18:45.416Z,101493.16
2022-08-12T17:21:40.980Z,101496.50
2022-08-12T17:24:15.280Z,101484.28
2022-08-12T17:26:45.404Z,101492.47
2022-08-12T17:29:32.173Z,101492.81
2022-08-12T17:32:10.121Z,101493.28
2022-08-12T17:34:56.143Z,101495.41
2022-08-12T17:37:23.292Z,101498.03
2022-08-12T17:40:12.383Z,101496.00
2022-08-12T17:42:39.584Z,101491.03
2022-08-12T17:45:17.834Z,101502.78
2022-08-12T17:48:04.678Z,101491.53
2022-08-12T17:50:43.212Z,101497.44
2022-08-12T17:53:11.254Z,101508.88
2022-08-12T17:55:48.152Z,101501.66
2022-08-12T17:58:35.610Z,101499.09
2022-08-12T18:01:05.963Z,101505.72
2022-08-12T18:04:05.054Z,101499.47
2022-08-12T18:06:27.939Z,101510.50
2022-08-12T18:08:59.378Z,101510.31
2022-08-12T18:12:03.822Z,101509.09
2022-08-12T18:14:37.083Z,101517.78
2022-08-12T18:17:08.888Z,101514.09
2022-08-12T18:20:04.186Z,101523.38
2022-08-12T18:22:33.758Z,101521.50
2022-08-12T18:25:06.259Z,101522.94
2022-08-12T18:27:47.194Z,101518.69
2022-08-12T18:30:16.512Z,101526.19
2022-08-12T18:32:58.286Z,101530.03
2022-08-12T18:35:46.853Z,101523.16
2022-08-12T18:38:19.501Z,101527.06
2022-08-12T18:41:07.431Z,101533.06
2022-08-12T18:43:59.151Z,101519.25
2022-08-12T18:46:35.859Z,101523.97
2022-08-12T18:49:17.981Z,101523.22
2022-08-12T18:51:55.291Z,101518.50
2022-08-12T18:54:28.669Z,101517.91
2022-08-12T18:57:03.904Z,101518.22
2022-08-12T19:00:00.937Z,101514.28
2022-08-12T19:02:25.429Z,101520.75
2022-08-12T19:04:53.994Z,101523.66
2022-08-12T19:07:25.382Z,101532.38
2022-08-12T19:10:00.098Z,101534.00
2022-08-12T19:12:57.561Z,101525.38
2022-08-12T19:15:27.279Z,101528.09
2022-08-12T19:18:02.491Z,101520.25
2022-08-12T19:20:34.165Z,101522.38
2022-08-12T19:23:07.185Z,101525.06
2022-08-12T19:26:00.218Z,101531.94
2022-08-12T19:28:34.614Z,101515.50
2022-08-12T19:31:56.661Z,101526.59
2022-08-12T19:38:03.211Z,101532.84
2022-08-12T19:40:32.733Z,101542.25
2022-08-12T19:43:20.386Z,101532.31
2022-08-12T19:45:50.582Z,101526.81
2022-08-12T19:48:23.878Z,101533.50
2022-08-12T19:50:55.543Z,101534.44
2022-08-12T19:53:24.211Z,101533.56
2022-08-12T19:55:54.006Z,101533.03
2022-08-12T19:58:23.651Z,101540.56
2022-08-12T20:00:55.854Z,101535.19
2022-08-12T20:03:39.905Z,101539.22
2022-08-12T20:06:21.761Z,101536.75
2022-08-12T20:08:56.773Z,101547.75
2022-08-12T20:12:12.013Z,101542.06
2022-08-12T20:14:19.264Z,101544.75
2022-08-12T20:16:56.392Z,101541.09
2022-08-12T20:20:16.401Z,101551.63
2022-08-12T20:22:29.968Z,101544.53
2022-08-12T20:25:02.313Z,101545.03
2022-08-12T20:28:02.491Z,101542.50
2022-08-12T20:30:37.685Z,101544.97
2022-08-12T20:33:19.104Z,101535.09
2022-08-12T20:36:14.171Z,101544.59
2022-08-12T20:38:45.982Z,101552.56
2022-08-12T20:41:17.480Z,101546.31
2022-08-12T20:43:52.080Z,101545.19
2022-08-12T20:46:20.766Z,101544.88
2022-08-12T20:49:14.771Z,101544.88
2022-08-12T20:51:55.751Z,101546.31
2022-08-12T20:54:32.636Z,101553.13
2022-08-12T20:57:10.218Z,101557.81
2022-08-12T20:59:47.998Z,101557.75
2022-08-12T21:02:24.620Z,101558.31
2022-08-12T21:05:20.228Z,101568.66
2022-08-12T21:07:52.013Z,101563.22
2022-08-12T21:10:21.308Z,101565.41
2022-08-12T21:12:54.493Z,101565.97
2022-08-12T21:15:30.545Z,101557.78
2022-08-12T21:18:08.811Z,101564.88
2022-08-12T21:20:44.352Z,101563.72
2022-08-12T21:23:13.883Z,101558.28
2022-08-12T21:25:45.137Z,101556.66
2022-08-12T21:28:17.334Z,101553.91
2022-08-12T21:31:10.979Z,101566.44
2022-08-12T21:33:32.211Z,101562.91
2022-08-12T21:36:22.642Z,101555.28
2022-08-12T21:38:51.234Z,101560.72
2022-08-12T21:41:20.266Z,101560.44
2022-08-12T21:43:50.427Z,101558.78
2022-08-12T21:46:35.000Z,101561.56
2022-08-12T21:49:05.187Z,101559.13
2022-08-12T21:51:49.426Z,101567.53
2022-08-12T21:54:22.441Z,101563.78
2022-08-12T21:56:53.615Z,101559.94
2022-08-12T21:59:22.058Z,101563.50
2022-08-12T22:01:49.999Z,101560.75
2022-08-12T22:04:37.102Z,101560.22
2022-08-12T22:07:06.876Z,101563.78
2022-08-12T22:09:43.377Z,101577.38
2022-08-12T22:12:30.267Z,101579.28
2022-08-12T22:14:58.060Z,101576.28
2022-08-12T22:17:33.788Z,101575.13
2022-08-12T22:20:21.741Z,101571.56
2022-08-12T22:22:56.375Z,101576.28
2022-08-12T22:25:28.637Z,101582.81
2022-08-12T22:28:15.248Z,101570.25
2022-08-12T22:31:11.629Z,101567.59
2022-08-12T22:33:53.920Z,101562.66
2022-08-12T22:36:29.170Z,101559.38
2022-08-12T22:38:58.932Z,101564.00
2022-08-12T22:41:45.821Z,101555.84
2022-08-12T22:44:31.257Z,101556.13
2022-08-12T22:47:53.225Z,101551.22
2022-08-12T22:50:27.792Z,101551.22
2022-08-12T22:53:15.515Z,101553.72
2022-08-12T22:56:05.875Z,101545.56
2022-08-12T22:58:36.779Z,101544.47
2022-08-12T23:01:11.255Z,101543.09
2022-08-12T23:03:48.828Z,101551.28
2022-08-12T23:06:23.104Z,101545.56
2022-08-12T23:08:51.791Z,101545.56
2022-08-12T23:11:23.276Z,101535.53
2022-08-12T23:13:56.323Z,101534.16
2022-08-12T23:16:31.511Z,101534.91
2022-08-12T23:19:18.106Z,101533.78
2022-08-12T23:22:35.694Z,101534.66
2022-08-12T23:24:55.522Z,101531.13
2022-08-12T23:27:51.944Z,101535.75
2022-08-12T23:30:32.486Z,101529.81
2022-08-12T23:33:13.226Z,101527.34
2022-08-12T23:36:02.178Z,101532.78
2022-08-12T23:38:35.357Z,101535.75
2022-08-12T23:41:05.984Z,101531.66
2022-08-12T23:43:39.279Z,101541.75
2022-08-12T23:46:18.712Z,101536.56
2022-08-12T23:48:51.673Z,101533.84
2022-08-12T23:51:26.767Z,101534.94
2022-08-12T23:54:02.891Z,101529.50
2022-08-12T23:56:33.614Z,101526.25
2022-08-12T23:59:10.505Z,101518.94
